Portada
METAR-TAF:

METAR-TAF

Aeroports :

Cúcuta, Colòmbia

latitud: 07-56N, longitud: 072-31W, altitud: 250 m

Observació

L'informe es va fer fa 1 hora i 11 minuts, a les 23:00 UTC
Vent 15 kt del Sud/Sud-Est
Temperatura 30°C
Humitat 46%
Pressió 1009 hPa
Visibilitat 10 km o més
Escasses núvols a una alçada de 2200 ft
Núvols disperses a una alçada de 20000 ft

METAR: SKCC 292300Z 16015KT 9999 FEW022 SCT200 30/17 A2980

Hora: 19:11 (00:11 UTC)

Pronòstic

L'informe es va fer fa 1 hora i 41 minuts, a les 22:30 UTC
Pronòstic vàlid del 30 a les 00 UTC al 30 a les 24 UTC
Vent 10 kt del Nord
Visibilitat 10 km o més
Escasses núvols a una alçada de 2300 ft
Núvols disperses a una alçada de 10000 ft
Evolucionant progressivament
l' 30 a les 06 UTC al 30 a les 08 UTC
Vent 15 kt del Sud

TAF: SKCC 292230Z 3000/3024 36010KT 9999 FEW023 SCT100 BECMG 3006/3008 18015KT TX34/3019Z TN23/3011Z

Observacions i pronòstics meteorològics de més de 4000 aeroports (METAR i TAF).

Les estacions disponibles són els punts grocs i vermells al mapa.

Posi el ratolí al punt desitjat per veure el nom de l'estació.

Feu clic per veure les observacions i els pronòstics meteorològics.

Per canviar el mapa: feu clic els botons verds amb una creu de color negre per apropar; al botó verd amb un guió per allunyar la imatge; o en les fletxes verdes per a mapes adjacents.


METAR-TAF: